Emporia, KS (66801)

6:43 AM CDT on March 25, 2017 (GMT -0500)
Timmerman School Area | | Change Station

Elev 1214 ft 38.43 °N, 96.22 °W | Updated 0 second ago

Mostly Cloudy
Mostly Cloudy
44.1 °F
Feels Like 37 °F
N
16.1
Wind Variable Wind from NNW
Gusts 19.9 mph

Today
High -- | Low -- °F
--% Chance of Precip.
Yesterday
High -- | Low -- °F
Precip. -- in
Pressure 29.82 in
Visibility 9.0 miles
Clouds Overcast 600 ft
Windchill 37 °F
Dew Point 42 °F
Humidity 92%
Rainfall 0.09 in
Snow Depth Not available.
7:19 AM 7:41 PM
Waning Crescent, 9% visible
METAR KEMP 251053Z AUTO 33017G24KT 9SM -RA OVC006 06/06 A2982 RMK AO2 PK WND 32027/1042 CIG 005V010 SLP096 P0006 T00610061
Pressure 29.82 in
Visibility 9.0 miles
Clouds Overcast 600 ft
Windchill 37 °F
Dew Point 42 °F
Humidity 92%
Rainfall 0.09 in
Snow Depth Not available.
7:19 AM 7:41 PM
Waning Crescent, 9% visible
METAR KEMP 251053Z AUTO 33017G24KT 9SM -RA OVC006 06/06 A2982 RMK AO2 PK WND 32027/1042 CIG 005V010 SLP096 P0006 T00610061

Get Severe Weather Alerts

Thanks for signing up!

Be on the lookout for a verification email in your inbox.

You'll start receiving the daily forecast at 8 AM.

×

10-Day Weather Forecast

Almanac

Astronomy

Mar. 25, 2017 Rise Set
Actual Time
Civil Twilight
Nautical Twilight
Astronomical Twilight
Moon
Length of Visible Light
Length of Day
Tomorrow will be .
, % of the Moon is Illuminated

Today's Extremes

State Highs State Lows

Community

WunderPhotos

Upload Photos

1,962,540 photos uploaded!

WunderBlog® & News

Nearby

Air Quality

  Air Quality AQ Index Pollutant
Not available.

Snow Depth

Station Depth Elevation

Earthquake Activity

City Distance Mag. Time & Date
Minimum magnitude displayed is 2.5.

Earthquake Activity

City Distance Mag. Time & Date
Minimum magnitude displayed is 2.5.

Coastal Water Temperatures

Place Temperature

Stations

Nearby Weather Stations

Station Location Temp. Windchill Dew Point Humidity Wind Precip. Elev Updated Type
                   

Watches & Warnings

There are currently no watches in effect.